sensor_id;sensor_type;location;lat;lon;timestamp;temperature;humidity
14095;DHT22;18096;48.142;16.290;2023-09-19T00:00:31;20.50;99.90
14095;DHT22;18096;48.142;16.290;2023-09-19T00:02:58;20.40;99.90
14095;DHT22;18096;48.142;16.290;2023-09-19T00:05:30;20.30;99.90
14095;DHT22;18096;48.142;16.290;2023-09-19T00:08:00;20.20;99.90
14095;DHT22;18096;48.142;16.290;2023-09-19T00:10:27;20.10;99.90
14095;DHT22;18096;48.142;16.290;2023-09-19T00:12:57;20.00;99.90
14095;DHT22;18096;48.142;16.290;2023-09-19T00:15:26;19.90;99.90
14095;DHT22;18096;48.142;16.290;2023-09-19T00:17:54;19.80;99.90
14095;DHT22;18096;48.142;16.290;2023-09-19T00:20:20;19.80;99.90
14095;DHT22;18096;48.142;16.290;2023-09-19T00:22:49;19.70;99.90
14095;DHT22;18096;48.142;16.290;2023-09-19T00:25:19;19.70;99.90
14095;DHT22;18096;48.142;16.290;2023-09-19T00:27:48;19.60;99.90
14095;DHT22;18096;48.142;16.290;2023-09-19T00:30:17;19.50;99.90
14095;DHT22;18096;48.142;16.290;2023-09-19T00:32:50;19.50;99.90
14095;DHT22;18096;48.142;16.290;2023-09-19T00:35:20;19.50;99.90
14095;DHT22;18096;48.142;16.290;2023-09-19T00:37:47;19.40;99.90
14095;DHT22;18096;48.142;16.290;2023-09-19T00:40:12;19.40;99.90
14095;DHT22;18096;48.142;16.290;2023-09-19T00:42:42;19.30;99.90
14095;DHT22;18096;48.142;16.290;2023-09-19T00:45:09;19.30;99.90
14095;DHT22;18096;48.142;16.290;2023-09-19T00:47:42;19.30;99.90
14095;DHT22;18096;48.142;16.290;2023-09-19T00:50:11;19.30;99.90
14095;DHT22;18096;48.142;16.290;2023-09-19T00:52:41;19.30;99.90
14095;DHT22;18096;48.142;16.290;2023-09-19T00:55:08;19.30;99.90
14095;DHT22;18096;48.142;16.290;2023-09-19T00:57:35;19.30;99.90
14095;DHT22;18096;48.142;16.290;2023-09-19T01:00:02;19.20;99.90
14095;DHT22;18096;48.142;16.290;2023-09-19T01:02:33;19.20;99.90
14095;DHT22;18096;48.142;16.290;2023-09-19T01:04:59;19.20;99.90
14095;DHT22;18096;48.142;16.290;2023-09-19T01:07:31;19.10;99.90
14095;DHT22;18096;48.142;16.290;2023-09-19T01:09:57;19.10;99.90
14095;DHT22;18096;48.142;16.290;2023-09-19T01:12:50;19.10;99.90
14095;DHT22;18096;48.142;16.290;2023-09-19T01:29:17;19.00;99.90
14095;DHT22;18096;48.142;16.290;2023-09-19T01:32:01;18.90;99.90
14095;DHT22;18096;48.142;16.290;2023-09-19T01:34:44;18.90;99.90
14095;DHT22;18096;48.142;16.290;2023-09-19T01:37:11;18.80;99.90
14095;DHT22;18096;48.142;16.290;2023-09-19T01:39:36;18.80;99.90
14095;DHT22;18096;48.142;16.290;2023-09-19T01:42:45;18.70;99.90
14095;DHT22;18096;48.142;16.290;2023-09-19T01:45:27;18.70;99.90
14095;DHT22;18096;48.142;16.290;2023-09-19T01:48:43;18.60;99.90
14095;DHT22;18096;48.142;16.290;2023-09-19T01:50:58;18.60;99.90
14095;DHT22;18096;48.142;16.290;2023-09-19T01:53:33;18.60;99.90
14095;DHT22;18096;48.142;16.290;2023-09-19T01:56:01;18.50;99.90
14095;DHT22;18096;48.142;16.290;2023-09-19T01:58:34;18.50;99.90
14095;DHT22;18096;48.142;16.290;2023-09-19T02:01:01;18.50;99.90
14095;DHT22;18096;48.142;16.290;2023-09-19T02:03:29;18.40;99.90
14095;DHT22;18096;48.142;16.290;2023-09-19T02:05:56;18.40;99.90
14095;DHT22;18096;48.142;16.290;2023-09-19T02:08:22;18.40;99.90
14095;DHT22;18096;48.142;16.290;2023-09-19T02:10:49;18.40;99.90
14095;DHT22;18096;48.142;16.290;2023-09-19T02:13:19;18.30;99.90
14095;DHT22;18096;48.142;16.290;2023-09-19T02:15:45;18.40;99.90
14095;DHT22;18096;48.142;16.290;2023-09-19T02:18:12;18.40;99.90
14095;DHT22;18096;48.142;16.290;2023-09-19T02:20:41;18.40;99.90
14095;DHT22;18096;48.142;16.290;2023-09-19T02:23:07;18.40;99.90
14095;DHT22;18096;48.142;16.290;2023-09-19T02:25:33;18.30;99.90
14095;DHT22;18096;48.142;16.290;2023-09-19T02:28:00;18.30;99.90
14095;DHT22;18096;48.142;16.290;2023-09-19T02:30:29;18.30;99.90
14095;DHT22;18096;48.142;16.290;2023-09-19T02:32:56;18.30;99.90
14095;DHT22;18096;48.142;16.290;2023-09-19T02:35:21;18.30;99.90
14095;DHT22;18096;48.142;16.290;2023-09-19T02:37:48;18.30;99.90
14095;DHT22;18096;48.142;16.290;2023-09-19T02:40:14;18.30;99.90
14095;DHT22;18096;48.142;16.290;2023-09-19T02:42:53;18.30;99.90
14095;DHT22;18096;48.142;16.290;2023-09-19T02:45:19;18.20;99.90
14095;DHT22;18096;48.142;16.290;2023-09-19T02:47:46;18.20;99.90
14095;DHT22;18096;48.142;16.290;2023-09-19T02:50:13;18.30;99.90
14095;DHT22;18096;48.142;16.290;2023-09-19T02:52:44;18.40;99.90
14095;DHT22;18096;48.142;16.290;2023-09-19T02:55:13;18.40;99.90
14095;DHT22;18096;48.142;16.290;2023-09-19T03:00:14;18.50;99.90
14095;DHT22;18096;48.142;16.290;2023-09-19T03:02:39;18.50;99.90
14095;DHT22;18096;48.142;16.290;2023-09-19T03:05:07;18.50;99.90
14095;DHT22;18096;48.142;16.290;2023-09-19T03:07:33;18.50;99.90
14095;DHT22;18096;48.142;16.290;2023-09-19T03:09:59;18.50;99.90
14095;DHT22;18096;48.142;16.290;2023-09-19T03:12:26;18.50;99.90
14095;DHT22;18096;48.142;16.290;2023-09-19T03:14:52;18.50;99.90
14095;DHT22;18096;48.142;16.290;2023-09-19T03:17:18;18.50;99.90
14095;DHT22;18096;48.142;16.290;2023-09-19T03:19:45;18.60;99.90
14095;DHT22;18096;48.142;16.290;2023-09-19T03:22:12;18.60;99.90
14095;DHT22;18096;48.142;16.290;2023-09-19T03:24:38;18.60;99.90
14095;DHT22;18096;48.142;16.290;2023-09-19T03:27:03;18.60;99.90
14095;DHT22;18096;48.142;16.290;2023-09-19T03:29:29;18.60;99.90
14095;DHT22;18096;48.142;16.290;2023-09-19T03:31:55;18.60;99.90
14095;DHT22;18096;48.142;16.290;2023-09-19T03:34:21;18.50;99.90
14095;DHT22;18096;48.142;16.290;2023-09-19T03:36:46;18.60;99.90
14095;DHT22;18096;48.142;16.290;2023-09-19T03:39:12;18.60;99.90
14095;DHT22;18096;48.142;16.290;2023-09-19T03:41:40;18.60;99.90
14095;DHT22;18096;48.142;16.290;2023-09-19T03:44:06;18.70;99.90
14095;DHT22;18096;48.142;16.290;2023-09-19T03:46:31;18.70;99.90
14095;DHT22;18096;48.142;16.290;2023-09-19T03:48:57;18.70;99.90
14095;DHT22;18096;48.142;16.290;2023-09-19T03:51:23;18.70;99.90
14095;DHT22;18096;48.142;16.290;2023-09-19T03:53:48;18.70;99.90
14095;DHT22;18096;48.142;16.290;2023-09-19T03:56:17;18.70;99.90
14095;DHT22;18096;48.142;16.290;2023-09-19T03:58:43;18.70;99.90
14095;DHT22;18096;48.142;16.290;2023-09-19T04:01:08;18.70;99.90
14095;DHT22;18096;48.142;16.290;2023-09-19T04:03:34;18.70;99.90
14095;DHT22;18096;48.142;16.290;2023-09-19T04:06:11;18.70;99.90
14095;DHT22;18096;48.142;16.290;2023-09-19T04:08:37;18.80;99.90
14095;DHT22;18096;48.142;16.290;2023-09-19T04:11:03;18.80;99.90
14095;DHT22;18096;48.142;16.290;2023-09-19T04:13:28;18.70;99.90
14095;DHT22;18096;48.142;16.290;2023-09-19T04:15:55;18.70;99.90
14095;DHT22;18096;48.142;16.290;2023-09-19T04:18:21;18.80;99.90
14095;DHT22;18096;48.142;16.290;2023-09-19T04:20:51;18.80;99.90
14095;DHT22;18096;48.142;16.290;2023-09-19T04:23:17;18.80;99.90
14095;DHT22;18096;48.142;16.290;2023-09-19T04:25:45;18.80;99.90
14095;DHT22;18096;48.142;16.290;2023-09-19T04:28:12;18.80;99.90
14095;DHT22;18096;48.142;16.290;2023-09-19T04:30:38;18.70;99.90
14095;DHT22;18096;48.142;16.290;2023-09-19T04:33:05;18.80;99.90
14095;DHT22;18096;48.142;16.290;2023-09-19T04:35:32;18.70;99.90
14095;DHT22;18096;48.142;16.290;2023-09-19T04:37:58;18.70;99.90
14095;DHT22;18096;48.142;16.290;2023-09-19T04:40:24;18.70;99.90
14095;DHT22;18096;48.142;16.290;2023-09-19T04:42:55;18.60;99.90
14095;DHT22;18096;48.142;16.290;2023-09-19T04:45:25;18.60;99.90
14095;DHT22;18096;48.142;16.290;2023-09-19T04:47:55;18.50;99.90
14095;DHT22;18096;48.142;16.290;2023-09-19T04:50:21;18.60;99.90
14095;DHT22;18096;48.142;16.290;2023-09-19T04:52:52;18.70;99.90
14095;DHT22;18096;48.142;16.290;2023-09-19T04:55:19;18.80;99.90
14095;DHT22;18096;48.142;16.290;2023-09-19T04:57:49;18.80;99.90
14095;DHT22;18096;48.142;16.290;2023-09-19T05:00:19;18.80;99.90
14095;DHT22;18096;48.142;16.290;2023-09-19T05:02:52;18.80;99.90
14095;DHT22;18096;48.142;16.290;2023-09-19T05:05:18;18.80;99.90
14095;DHT22;18096;48.142;16.290;2023-09-19T05:07:45;18.70;99.90
14095;DHT22;18096;48.142;16.290;2023-09-19T05:10:11;18.70;99.90
14095;DHT22;18096;48.142;16.290;2023-09-19T05:12:38;18.60;99.90
14095;DHT22;18096;48.142;16.290;2023-09-19T05:15:04;18.60;99.90
14095;DHT22;18096;48.142;16.290;2023-09-19T05:17:32;18.60;99.90
14095;DHT22;18096;48.142;16.290;2023-09-19T05:19:58;18.70;99.90
14095;DHT22;18096;48.142;16.290;2023-09-19T05:22:26;18.70;99.90
14095;DHT22;18096;48.142;16.290;2023-09-19T05:24:52;18.60;99.90
14095;DHT22;18096;48.142;16.290;2023-09-19T05:27:18;18.70;99.90
14095;DHT22;18096;48.142;16.290;2023-09-19T05:29:46;18.60;99.90
14095;DHT22;18096;48.142;16.290;2023-09-19T05:32:12;18.60;99.90
14095;DHT22;18096;48.142;16.290;2023-09-19T05:34:38;18.50;99.90
14095;DHT22;18096;48.142;16.290;2023-09-19T05:37:04;18.60;99.90
14095;DHT22;18096;48.142;16.290;2023-09-19T05:39:33;18.50;99.90
14095;DHT22;18096;48.142;16.290;2023-09-19T05:41:59;18.40;99.90
14095;DHT22;18096;48.142;16.290;2023-09-19T05:44:25;18.20;99.90
14095;DHT22;18096;48.142;16.290;2023-09-19T05:46:51;18.20;99.90
14095;DHT22;18096;48.142;16.290;2023-09-19T05:49:17;18.20;99.90
14095;DHT22;18096;48.142;16.290;2023-09-19T05:51:43;18.10;99.90
14095;DHT22;18096;48.142;16.290;2023-09-19T05:54:09;18.20;99.90
14095;DHT22;18096;48.142;16.290;2023-09-19T05:56:36;18.10;99.90
14095;DHT22;18096;48.142;16.290;2023-09-19T05:59:02;18.10;99.90
14095;DHT22;18096;48.142;16.290;2023-09-19T06:01:29;18.00;99.90
14095;DHT22;18096;48.142;16.290;2023-09-19T06:03:57;18.00;99.90
14095;DHT22;18096;48.142;16.290;2023-09-19T06:06:22;18.00;99.90
14095;DHT22;18096;48.142;16.290;2023-09-19T06:08:49;18.00;99.90
14095;DHT22;18096;48.142;16.290;2023-09-19T06:11:16;17.90;99.90
14095;DHT22;18096;48.142;16.290;2023-09-19T06:13:41;17.90;99.90
14095;DHT22;18096;48.142;16.290;2023-09-19T06:16:07;18.00;99.90
14095;DHT22;18096;48.142;16.290;2023-09-19T06:18:34;18.10;99.90
14095;DHT22;18096;48.142;16.290;2023-09-19T06:21:00;18.10;99.90
14095;DHT22;18096;48.142;16.290;2023-09-19T06:23:26;18.10;99.90
14095;DHT22;18096;48.142;16.290;2023-09-19T06:25:54;18.20;99.90
14095;DHT22;18096;48.142;16.290;2023-09-19T06:28:20;18.20;99.90
14095;DHT22;18096;48.142;16.290;2023-09-19T06:30:50;18.20;99.90
14095;DHT22;18096;48.142;16.290;2023-09-19T06:33:15;18.30;99.90
14095;DHT22;18096;48.142;16.290;2023-09-19T06:35:42;18.30;99.90
14095;DHT22;18096;48.142;16.290;2023-09-19T06:38:12;18.30;99.90
14095;DHT22;18096;48.142;16.290;2023-09-19T06:40:38;18.40;99.90
14095;DHT22;18096;48.142;16.290;2023-09-19T06:43:05;18.40;99.90
14095;DHT22;18096;48.142;16.290;2023-09-19T06:45:31;18.40;99.90
14095;DHT22;18096;48.142;16.290;2023-09-19T06:47:57;18.40;99.90
14095;DHT22;18096;48.142;16.290;2023-09-19T06:50:25;18.40;99.90
14095;DHT22;18096;48.142;16.290;2023-09-19T06:52:52;18.50;99.90
14095;DHT22;18096;48.142;16.290;2023-09-19T06:55:19;18.50;99.90
14095;DHT22;18096;48.142;16.290;2023-09-19T06:57:48;18.50;99.90
14095;DHT22;18096;48.142;16.290;2023-09-19T07:00:14;18.50;99.90
14095;DHT22;18096;48.142;16.290;2023-09-19T07:05:21;18.60;99.90
14095;DHT22;18096;48.142;16.290;2023-09-19T07:07:47;18.60;99.90
14095;DHT22;18096;48.142;16.290;2023-09-19T07:10:12;18.60;99.90
14095;DHT22;18096;48.142;16.290;2023-09-19T07:12:38;18.60;99.90
14095;DHT22;18096;48.142;16.290;2023-09-19T07:15:04;18.70;99.90
14095;DHT22;18096;48.142;16.290;2023-09-19T07:17:31;18.70;99.90
14095;DHT22;18096;48.142;16.290;2023-09-19T07:19:58;18.70;99.90
14095;DHT22;18096;48.142;16.290;2023-09-19T07:22:26;18.70;99.90
14095;DHT22;18096;48.142;16.290;2023-09-19T07:24:51;18.70;99.90
14095;DHT22;18096;48.142;16.290;2023-09-19T07:27:17;18.70;99.90
14095;DHT22;18096;48.142;16.290;2023-09-19T07:29:43;18.70;99.90
14095;DHT22;18096;48.142;16.290;2023-09-19T07:32:10;18.70;99.90
14095;DHT22;18096;48.142;16.290;2023-09-19T07:34:37;18.80;99.90
14095;DHT22;18096;48.142;16.290;2023-09-19T07:37:06;18.80;99.90
14095;DHT22;18096;48.142;16.290;2023-09-19T07:39:31;18.80;99.90
14095;DHT22;18096;48.142;16.290;2023-09-19T07:41:57;18.90;99.90
14095;DHT22;18096;48.142;16.290;2023-09-19T07:44:23;18.90;99.90
14095;DHT22;18096;48.142;16.290;2023-09-19T07:46:51;18.90;99.90
14095;DHT22;18096;48.142;16.290;2023-09-19T07:49:17;19.00;99.90
14095;DHT22;18096;48.142;16.290;2023-09-19T07:51:44;19.00;99.90
14095;DHT22;18096;48.142;16.290;2023-09-19T07:54:12;19.10;99.90
14095;DHT22;18096;48.142;16.290;2023-09-19T07:56:38;19.10;99.90
14095;DHT22;18096;48.142;16.290;2023-09-19T07:59:04;19.20;99.90
14095;DHT22;18096;48.142;16.290;2023-09-19T08:01:29;19.30;99.90
14095;DHT22;18096;48.142;16.290;2023-09-19T08:03:55;19.40;99.90
14095;DHT22;18096;48.142;16.290;2023-09-19T08:06:21;19.40;99.90
14095;DHT22;18096;48.142;16.290;2023-09-19T08:08:46;19.50;99.90
14095;DHT22;18096;48.142;16.290;2023-09-19T08:11:12;19.50;99.90
14095;DHT22;18096;48.142;16.290;2023-09-19T08:13:39;19.50;99.90
14095;DHT22;18096;48.142;16.290;2023-09-19T08:16:14;19.60;99.90
14095;DHT22;18096;48.142;16.290;2023-09-19T08:18:40;19.60;99.90
14095;DHT22;18096;48.142;16.290;2023-09-19T08:21:07;19.70;99.90
14095;DHT22;18096;48.142;16.290;2023-09-19T08:23:40;19.70;99.90
14095;DHT22;18096;48.142;16.290;2023-09-19T08:26:06;19.70;99.90
14095;DHT22;18096;48.142;16.290;2023-09-19T08:28:33;19.80;99.90
14095;DHT22;18096;48.142;16.290;2023-09-19T08:31:06;20.20;99.90
14095;DHT22;18096;48.142;16.290;2023-09-19T08:33:36;20.30;99.90
14095;DHT22;18096;48.142;16.290;2023-09-19T08:36:03;20.50;99.90
14095;DHT22;18096;48.142;16.290;2023-09-19T08:38:34;20.60;99.90
14095;DHT22;18096;48.142;16.290;2023-09-19T08:41:01;20.60;99.90
14095;DHT22;18096;48.142;16.290;2023-09-19T08:43:30;20.60;99.90
14095;DHT22;18096;48.142;16.290;2023-09-19T08:46:14;20.60;99.90
14095;DHT22;18096;48.142;16.290;2023-09-19T08:48:46;20.50;99.90
14095;DHT22;18096;48.142;16.290;2023-09-19T08:51:21;20.50;99.90
14095;DHT22;18096;48.142;16.290;2023-09-19T08:54:06;20.50;99.90
14095;DHT22;18096;48.142;16.290;2023-09-19T08:56:33;20.50;99.90
14095;DHT22;18096;48.142;16.290;2023-09-19T08:58:59;20.50;99.90
14095;DHT22;18096;48.142;16.290;2023-09-19T09:01:28;20.50;99.90
14095;DHT22;18096;48.142;16.290;2023-09-19T09:03:56;20.50;99.90
14095;DHT22;18096;48.142;16.290;2023-09-19T09:06:23;20.50;99.90
14095;DHT22;18096;48.142;16.290;2023-09-19T09:08:52;20.50;99.90
14095;DHT22;18096;48.142;16.290;2023-09-19T09:11:18;20.50;99.90
14095;DHT22;18096;48.142;16.290;2023-09-19T09:13:45;20.40;99.90
14095;DHT22;18096;48.142;16.290;2023-09-19T09:16:12;20.30;99.90
14095;DHT22;18096;48.142;16.290;2023-09-19T09:18:39;20.30;99.90
14095;DHT22;18096;48.142;16.290;2023-09-19T09:21:05;20.30;99.90
14095;DHT22;18096;48.142;16.290;2023-09-19T09:23:31;20.30;99.90
14095;DHT22;18096;48.142;16.290;2023-09-19T09:25:58;20.30;99.90
14095;DHT22;18096;48.142;16.290;2023-09-19T09:28:34;20.30;99.90
14095;DHT22;18096;48.142;16.290;2023-09-19T09:31:01;20.30;99.90
14095;DHT22;18096;48.142;16.290;2023-09-19T09:33:35;20.30;99.90
14095;DHT22;18096;48.142;16.290;2023-09-19T09:36:02;20.30;99.90
14095;DHT22;18096;48.142;16.290;2023-09-19T09:38:48;20.40;99.90
14095;DHT22;18096;48.142;16.290;2023-09-19T09:41:16;20.40;99.90
14095;DHT22;18096;48.142;16.290;2023-09-19T09:44:13;20.50;99.90
14095;DHT22;18096;48.142;16.290;2023-09-19T09:46:43;20.60;99.90
14095;DHT22;18096;48.142;16.290;2023-09-19T09:49:22;20.70;99.90
14095;DHT22;18096;48.142;16.290;2023-09-19T09:51:50;20.70;99.90
14095;DHT22;18096;48.142;16.290;2023-09-19T09:54:29;20.80;99.90
14095;DHT22;18096;48.142;16.290;2023-09-19T09:57:08;20.80;99.90
14095;DHT22;18096;48.142;16.290;2023-09-19T10:02:16;20.90;99.90
14095;DHT22;18096;48.142;16.290;2023-09-19T10:04:57;21.00;99.90
14095;DHT22;18096;48.142;16.290;2023-09-19T10:07:40;21.00;99.90
14095;DHT22;18096;48.142;16.290;2023-09-19T10:10:37;21.10;99.90
14095;DHT22;18096;48.142;16.290;2023-09-19T10:13:25;21.10;99.90
14095;DHT22;18096;48.142;16.290;2023-09-19T10:15:55;21.10;99.90
14095;DHT22;18096;48.142;16.290;2023-09-19T10:18:24;21.20;99.90
14095;DHT22;18096;48.142;16.290;2023-09-19T10:20:50;21.20;99.90
14095;DHT22;18096;48.142;16.290;2023-09-19T10:23:18;21.30;99.90
14095;DHT22;18096;48.142;16.290;2023-09-19T10:25:51;21.30;99.90
14095;DHT22;18096;48.142;16.290;2023-09-19T10:28:18;21.30;99.90
14095;DHT22;18096;48.142;16.290;2023-09-19T10:30:51;21.40;99.90
14095;DHT22;18096;48.142;16.290;2023-09-19T10:33:22;21.40;99.90
14095;DHT22;18096;48.142;16.290;2023-09-19T10:35:49;21.40;99.90
14095;DHT22;18096;48.142;16.290;2023-09-19T10:38:25;21.40;99.90
14095;DHT22;18096;48.142;16.290;2023-09-19T10:40:53;21.50;99.90
14095;DHT22;18096;48.142;16.290;2023-09-19T10:43:20;21.50;99.90
14095;DHT22;18096;48.142;16.290;2023-09-19T10:45:49;21.60;99.90
14095;DHT22;18096;48.142;16.290;2023-09-19T10:48:18;21.60;99.90
14095;DHT22;18096;48.142;16.290;2023-09-19T10:51:09;21.70;99.90
14095;DHT22;18096;48.142;16.290;2023-09-19T10:56:17;21.70;99.90
14095;DHT22;18096;48.142;16.290;2023-09-19T10:58:44;21.80;99.90
14095;DHT22;18096;48.142;16.290;2023-09-19T11:01:11;21.80;99.90
14095;DHT22;18096;48.142;16.290;2023-09-19T11:03:44;21.80;99.90
14095;DHT22;18096;48.142;16.290;2023-09-19T11:09:01;21.90;99.90
14095;DHT22;18096;48.142;16.290;2023-09-19T11:11:48;22.00;99.90
14095;DHT22;18096;48.142;16.290;2023-09-19T11:30:43;22.20;99.90
14095;DHT22;18096;48.142;16.290;2023-09-19T11:33:19;22.30;99.90
14095;DHT22;18096;48.142;16.290;2023-09-19T11:36:10;22.30;99.90
14095;DHT22;18096;48.142;16.290;2023-09-19T11:43:47;22.40;99.90
14095;DHT22;18096;48.142;16.290;2023-09-19T11:46:13;22.40;99.90
14095;DHT22;18096;48.142;16.290;2023-09-19T11:48:43;22.40;99.90
14095;DHT22;18096;48.142;16.290;2023-09-19T11:51:13;22.40;99.90
14095;DHT22;18096;48.142;16.290;2023-09-19T11:53:56;22.30;99.90
14095;DHT22;18096;48.142;16.290;2023-09-19T11:56:26;22.40;99.90
14095;DHT22;18096;48.142;16.290;2023-09-19T11:58:57;22.40;99.90
14095;DHT22;18096;48.142;16.290;2023-09-19T12:01:32;22.40;99.90
14095;DHT22;18096;48.142;16.290;2023-09-19T12:04:01;22.40;99.90
14095;DHT22;18096;48.142;16.290;2023-09-19T12:06:30;22.50;99.90
14095;DHT22;18096;48.142;16.290;2023-09-19T12:08:58;22.50;99.90
14095;DHT22;18096;48.142;16.290;2023-09-19T12:11:30;22.50;99.90
14095;DHT22;18096;48.142;16.290;2023-09-19T12:13:59;22.40;99.90
14095;DHT22;18096;48.142;16.290;2023-09-19T12:16:26;22.40;99.90
14095;DHT22;18096;48.142;16.290;2023-09-19T12:18:56;22.30;99.90
14095;DHT22;18096;48.142;16.290;2023-09-19T12:21:30;22.30;99.90
14095;DHT22;18096;48.142;16.290;2023-09-19T12:24:14;22.40;99.90
14095;DHT22;18096;48.142;16.290;2023-09-19T12:26:43;22.40;99.90
14095;DHT22;18096;48.142;16.290;2023-09-19T12:29:19;22.40;99.90
14095;DHT22;18096;48.142;16.290;2023-09-19T12:31:52;22.40;99.90
14095;DHT22;18096;48.142;16.290;2023-09-19T12:34:24;22.50;99.90
14095;DHT22;18096;48.142;16.290;2023-09-19T12:39:44;22.50;99.90
14095;DHT22;18096;48.142;16.290;2023-09-19T12:42:23;22.50;99.90
14095;DHT22;18096;48.142;16.290;2023-09-19T12:44:51;22.50;99.90
14095;DHT22;18096;48.142;16.290;2023-09-19T12:47:23;22.50;99.90
14095;DHT22;18096;48.142;16.290;2023-09-19T12:52:45;22.50;99.90
14095;DHT22;18096;48.142;16.290;2023-09-19T12:55:26;22.50;99.90
14095;DHT22;18096;48.142;16.290;2023-09-19T12:58:15;22.50;99.90
14095;DHT22;18096;48.142;16.290;2023-09-19T13:00:43;22.60;99.90
14095;DHT22;18096;48.142;16.290;2023-09-19T13:03:18;22.70;99.90
14095;DHT22;18096;48.142;16.290;2023-09-19T13:08:21;22.60;99.90
14095;DHT22;18096;48.142;16.290;2023-09-19T13:13:29;22.70;99.90
14095;DHT22;18096;48.142;16.290;2023-09-19T13:15:55;22.70;99.90
14095;DHT22;18096;48.142;16.290;2023-09-19T13:18:23;22.70;99.90
14095;DHT22;18096;48.142;16.290;2023-09-19T13:21:07;22.70;99.90
14095;DHT22;18096;48.142;16.290;2023-09-19T13:23:43;22.70;99.90
14095;DHT22;18096;48.142;16.290;2023-09-19T13:26:10;22.80;99.90
14095;DHT22;18096;48.142;16.290;2023-09-19T13:28:37;22.80;99.90
14095;DHT22;18096;48.142;16.290;2023-09-19T13:31:03;22.80;99.90
14095;DHT22;18096;48.142;16.290;2023-09-19T13:33:28;22.80;99.90
14095;DHT22;18096;48.142;16.290;2023-09-19T13:35:54;22.80;99.90
14095;DHT22;18096;48.142;16.290;2023-09-19T13:38:22;22.80;99.90
14095;DHT22;18096;48.142;16.290;2023-09-19T13:40:48;22.80;99.90
14095;DHT22;18096;48.142;16.290;2023-09-19T13:43:15;22.80;99.90
14095;DHT22;18096;48.142;16.290;2023-09-19T13:45:41;22.80;99.90
14095;DHT22;18096;48.142;16.290;2023-09-19T13:48:08;22.70;99.90
14095;DHT22;18096;48.142;16.290;2023-09-19T13:50:37;22.80;99.90
14095;DHT22;18096;48.142;16.290;2023-09-19T13:53:08;22.80;99.90
14095;DHT22;18096;48.142;16.290;2023-09-19T13:55:33;22.80;99.90
14095;DHT22;18096;48.142;16.290;2023-09-19T13:57:59;22.80;99.90
14095;DHT22;18096;48.142;16.290;2023-09-19T14:00:25;22.80;99.90
14095;DHT22;18096;48.142;16.290;2023-09-19T14:02:51;22.80;99.90
14095;DHT22;18096;48.142;16.290;2023-09-19T14:05:17;22.80;99.90
14095;DHT22;18096;48.142;16.290;2023-09-19T14:07:44;22.80;99.90
14095;DHT22;18096;48.142;16.290;2023-09-19T14:10:11;22.80;99.90
14095;DHT22;18096;48.142;16.290;2023-09-19T14:12:40;22.80;99.90
14095;DHT22;18096;48.142;16.290;2023-09-19T14:15:10;22.80;99.90
14095;DHT22;18096;48.142;16.290;2023-09-19T14:17:37;22.80;99.90
14095;DHT22;18096;48.142;16.290;2023-09-19T14:20:03;22.80;99.90
14095;DHT22;18096;48.142;16.290;2023-09-19T14:22:31;22.80;99.90
14095;DHT22;18096;48.142;16.290;2023-09-19T14:24:56;22.80;99.90
14095;DHT22;18096;48.142;16.290;2023-09-19T14:27:22;22.80;99.90
14095;DHT22;18096;48.142;16.290;2023-09-19T14:29:48;22.80;99.90
14095;DHT22;18096;48.142;16.290;2023-09-19T14:32:13;22.80;99.90
14095;DHT22;18096;48.142;16.290;2023-09-19T14:34:39;22.80;99.90
14095;DHT22;18096;48.142;16.290;2023-09-19T14:37:08;22.80;99.90
14095;DHT22;18096;48.142;16.290;2023-09-19T14:39:34;22.80;99.90
14095;DHT22;18096;48.142;16.290;2023-09-19T14:41:59;22.80;99.90
14095;DHT22;18096;48.142;16.290;2023-09-19T14:44:25;22.80;99.90
14095;DHT22;18096;48.142;16.290;2023-09-19T14:46:51;22.80;99.90
14095;DHT22;18096;48.142;16.290;2023-09-19T14:49:17;22.70;99.90
14095;DHT22;18096;48.142;16.290;2023-09-19T14:51:42;22.70;99.90
14095;DHT22;18096;48.142;16.290;2023-09-19T14:54:09;22.70;99.90
14095;DHT22;18096;48.142;16.290;2023-09-19T14:56:35;22.70;99.90
14095;DHT22;18096;48.142;16.290;2023-09-19T14:59:01;22.70;99.90
14095;DHT22;18096;48.142;16.290;2023-09-19T15:01:28;22.70;99.90
14095;DHT22;18096;48.142;16.290;2023-09-19T15:03:54;22.70;99.90
14095;DHT22;18096;48.142;16.290;2023-09-19T15:06:21;22.70;99.90
14095;DHT22;18096;48.142;16.290;2023-09-19T15:08:47;22.70;99.90
14095;DHT22;18096;48.142;16.290;2023-09-19T15:11:17;22.70;99.90
14095;DHT22;18096;48.142;16.290;2023-09-19T15:13:44;22.70;99.90
14095;DHT22;18096;48.142;16.290;2023-09-19T15:16:11;22.70;99.90
14095;DHT22;18096;48.142;16.290;2023-09-19T15:18:43;22.70;99.90
14095;DHT22;18096;48.142;16.290;2023-09-19T15:21:11;22.60;99.90
14095;DHT22;18096;48.142;16.290;2023-09-19T15:23:39;22.70;99.90
14095;DHT22;18096;48.142;16.290;2023-09-19T15:26:08;22.70;99.90
14095;DHT22;18096;48.142;16.290;2023-09-19T15:28:34;22.60;99.90
14095;DHT22;18096;48.142;16.290;2023-09-19T15:31:02;22.60;99.90
14095;DHT22;18096;48.142;16.290;2023-09-19T15:33:32;22.60;99.90
14095;DHT22;18096;48.142;16.290;2023-09-19T15:36:12;22.60;99.90
14095;DHT22;18096;48.142;16.290;2023-09-19T15:41:40;22.60;99.90
14095;DHT22;18096;48.142;16.290;2023-09-19T15:44:15;22.50;99.90
14095;DHT22;18096;48.142;16.290;2023-09-19T15:46:42;22.50;99.90
14095;DHT22;18096;48.142;16.290;2023-09-19T15:49:09;22.50;99.90
14095;DHT22;18096;48.142;16.290;2023-09-19T15:51:36;22.50;99.90
14095;DHT22;18096;48.142;16.290;2023-09-19T15:54:08;22.50;99.90
14095;DHT22;18096;48.142;16.290;2023-09-19T15:56:35;22.50;99.90
14095;DHT22;18096;48.142;16.290;2023-09-19T15:59:02;22.50;99.90
14095;DHT22;18096;48.142;16.290;2023-09-19T16:01:28;22.40;99.90
14095;DHT22;18096;48.142;16.290;2023-09-19T16:03:55;22.40;99.90
14095;DHT22;18096;48.142;16.290;2023-09-19T16:06:26;22.40;99.90
14095;DHT22;18096;48.142;16.290;2023-09-19T16:08:55;22.40;99.90
14095;DHT22;18096;48.142;16.290;2023-09-19T16:11:22;22.40;99.90
14095;DHT22;18096;48.142;16.290;2023-09-19T16:13:50;22.30;99.90
14095;DHT22;18096;48.142;16.290;2023-09-19T16:16:17;22.30;99.90
14095;DHT22;18096;48.142;16.290;2023-09-19T16:18:52;22.20;99.90
14095;DHT22;18096;48.142;16.290;2023-09-19T16:21:28;22.20;99.90
14095;DHT22;18096;48.142;16.290;2023-09-19T16:23:57;22.20;99.90
14095;DHT22;18096;48.142;16.290;2023-09-19T16:26:25;22.10;99.90
14095;DHT22;18096;48.142;16.290;2023-09-19T16:28:53;22.10;99.90